createdAt,value
2019-03-25T00:00:59.546Z,0.93
2019-03-25T00:03:54.070Z,0.80
2019-03-25T00:06:41.266Z,0.80
2019-03-25T00:09:35.353Z,0.60
2019-03-25T00:12:22.442Z,0.80
2019-03-25T00:15:17.192Z,0.90
2019-03-25T00:18:04.359Z,0.90
2019-03-25T00:21:07.448Z,0.67
2019-03-25T00:24:02.154Z,0.53
2019-03-25T00:26:56.626Z,0.60
2019-03-25T00:29:43.778Z,0.60
2019-03-25T00:32:37.498Z,0.60
2019-03-25T00:35:24.720Z,0.93
2019-03-25T00:38:19.094Z,0.87
2019-03-25T00:41:06.538Z,0.80
2019-03-25T00:46:50.059Z,0.70
2019-03-25T00:49:46.231Z,0.90
2019-03-25T00:52:36.297Z,0.77
2019-03-25T00:55:30.128Z,0.70
2019-03-25T00:58:17.332Z,0.73
2019-03-25T01:01:11.096Z,1.00
2019-03-25T01:03:58.468Z,0.87
2019-03-25T01:06:53.264Z,0.70
2019-03-25T01:09:40.836Z,0.70
2019-03-25T01:12:34.200Z,0.60
2019-03-25T01:15:21.404Z,0.70
2019-03-25T01:18:17.152Z,1.03
2019-03-25T01:21:10.382Z,0.80
2019-03-25T01:24:11.712Z,0.70
2019-03-25T01:26:59.192Z,0.70
2019-03-25T01:29:53.731Z,0.60
2019-03-25T01:32:40.850Z,0.80
2019-03-25T01:35:35.659Z,0.80
2019-03-25T01:38:22.936Z,0.93
2019-03-25T01:41:17.182Z,0.73
2019-03-25T01:44:04.454Z,0.77
2019-03-25T01:46:58.576Z,0.70
2019-03-25T01:49:46.089Z,0.50
2019-03-25T01:52:39.820Z,1.00
2019-03-25T01:55:27.110Z,1.00
2019-03-25T01:58:21.428Z,0.70
2019-03-25T02:01:08.836Z,0.80
2019-03-25T02:04:03.207Z,0.80
2019-03-25T02:06:50.440Z,0.80
2019-03-25T02:09:44.661Z,0.67
2019-03-25T02:12:31.868Z,0.70
2019-03-25T02:15:26.226Z,0.63
2019-03-25T02:18:13.420Z,0.80
2019-03-25T02:21:06.948Z,1.10
2019-03-25T02:24:01.110Z,0.63
2019-03-25T02:27:02.276Z,0.83
2019-03-25T02:29:49.340Z,0.90
2019-03-25T02:32:42.957Z,0.90
2019-03-25T02:35:30.500Z,0.70
2019-03-25T02:38:24.395Z,0.97
2019-03-25T02:41:11.599Z,1.10
2019-03-25T02:44:05.207Z,0.70
2019-03-25T02:46:52.429Z,0.50
2019-03-25T02:49:47.029Z,0.80
2019-03-25T02:52:34.260Z,0.90
2019-03-25T02:55:40.847Z,0.93
2019-03-25T02:58:16.635Z,0.70
2019-03-25T03:01:11.566Z,0.80
2019-03-25T03:03:58.478Z,1.00
2019-03-25T03:06:53.138Z,0.60
2019-03-25T03:09:40.309Z,0.83
2019-03-25T03:12:34.878Z,1.00
2019-03-25T03:15:22.465Z,0.70
2019-03-25T03:18:15.759Z,0.77
2019-03-25T03:21:03.302Z,1.13
2019-03-25T03:24:06.913Z,1.00
2019-03-25T03:27:01.408Z,1.00
2019-03-25T03:29:55.828Z,0.80
2019-03-25T03:32:42.469Z,0.77
2019-03-25T03:35:36.910Z,0.90
2019-03-25T03:38:24.213Z,0.80
2019-03-25T03:41:18.233Z,1.00
2019-03-25T03:44:05.450Z,0.80
2019-03-25T03:47:00.322Z,1.10
2019-03-25T03:49:47.650Z,1.00
2019-03-25T03:52:42.146Z,0.97
2019-03-25T03:55:29.172Z,0.80
2019-03-25T03:58:23.522Z,1.00
2019-03-25T04:01:10.929Z,1.40
2019-03-25T04:04:04.705Z,1.13
2019-03-25T04:06:52.270Z,1.07
2019-03-25T04:09:46.696Z,1.00
2019-03-25T04:12:33.543Z,1.00
2019-03-25T04:15:37.644Z,1.00
2019-03-25T04:18:25.251Z,1.00
2019-03-25T04:21:19.111Z,1.03
2019-03-25T04:24:15.299Z,1.07
2019-03-25T04:27:09.640Z,0.80
2019-03-25T04:30:06.459Z,1.00
2019-03-25T04:33:00.988Z,1.00
2019-03-25T04:35:48.269Z,0.80
2019-03-25T04:38:42.319Z,1.00
2019-03-25T04:41:29.770Z,1.17
2019-03-25T04:44:24.059Z,1.03
2019-03-25T04:47:11.261Z,1.03
2019-03-25T04:50:05.523Z,1.20
2019-03-25T04:52:52.867Z,0.90
2019-03-25T04:55:46.688Z,1.13
2019-03-25T04:58:40.505Z,0.90
2019-03-25T05:01:34.600Z,0.80
2019-03-25T05:04:21.515Z,0.80
2019-03-25T05:07:15.997Z,1.03
2019-03-25T05:10:04.701Z,1.00
2019-03-25T05:12:59.153Z,0.70
2019-03-25T05:15:46.665Z,1.20
2019-03-25T05:18:40.628Z,0.90
2019-03-25T05:21:27.907Z,0.77
2019-03-25T05:24:29.701Z,1.27
2019-03-25T05:27:23.815Z,1.03
2019-03-25T05:30:26.789Z,0.90
2019-03-25T05:33:14.284Z,0.90
2019-03-25T05:36:08.713Z,1.20
2019-03-25T05:38:55.738Z,0.97
2019-03-25T05:41:50.065Z,0.50
2019-03-25T05:44:37.287Z,1.07
2019-03-25T05:47:31.621Z,1.23
2019-03-25T05:50:18.950Z,0.90
2019-03-25T05:53:14.319Z,0.80
2019-03-25T05:56:01.737Z,0.97
2019-03-25T05:58:56.055Z,0.90
2019-03-25T06:01:44.214Z,1.47
2019-03-25T06:04:39.031Z,1.10
2019-03-25T06:07:26.610Z,0.80
2019-03-25T06:10:21.013Z,1.00
2019-03-25T06:13:08.136Z,0.90
2019-03-25T06:16:02.537Z,0.63
2019-03-25T06:18:49.580Z,1.10
2019-03-25T06:21:43.437Z,0.87
2019-03-25T06:24:37.496Z,0.73
2019-03-25T06:27:31.765Z,0.93
2019-03-25T06:30:18.881Z,0.90
2019-03-25T06:33:20.355Z,0.77
2019-03-25T06:36:07.683Z,0.80
2019-03-25T06:39:01.822Z,0.60
2019-03-25T06:41:49.182Z,0.60
2019-03-25T06:44:43.221Z,0.90
2019-03-25T06:47:30.483Z,0.63
2019-03-25T06:50:24.721Z,0.53
2019-03-25T06:53:11.715Z,0.57
2019-03-25T06:56:06.338Z,0.70
2019-03-25T06:58:53.220Z,0.63
2019-03-25T07:01:49.961Z,0.33
2019-03-25T07:04:37.183Z,0.60
2019-03-25T07:07:30.622Z,0.80
2019-03-25T07:10:19.390Z,0.60
2019-03-25T07:13:13.798Z,0.60
2019-03-25T07:16:01.071Z,0.63
2019-03-25T07:18:55.016Z,0.83
2019-03-25T07:21:42.075Z,0.60
2019-03-25T07:24:36.532Z,0.80
2019-03-25T07:27:36.606Z,0.73
2019-03-25T07:30:26.500Z,0.40
2019-03-25T07:33:13.832Z,0.50
2019-03-25T07:36:15.299Z,0.60
2019-03-25T07:39:02.429Z,0.43
2019-03-25T07:41:57.740Z,0.43
2019-03-25T07:44:46.449Z,0.53
2019-03-25T07:47:40.977Z,0.50
2019-03-25T07:50:28.174Z,0.50
2019-03-25T07:53:21.954Z,0.53
2019-03-25T07:56:09.077Z,0.57
2019-03-25T07:59:03.343Z,0.40
2019-03-25T08:01:50.963Z,0.50
2019-03-25T08:04:44.996Z,0.67
2019-03-25T08:07:32.274Z,0.60
2019-03-25T08:10:34.231Z,1.20
2019-03-25T08:13:21.493Z,0.70
2019-03-25T08:16:16.429Z,0.53
2019-03-25T08:19:03.834Z,0.73
2019-03-25T08:21:58.762Z,0.40
2019-03-25T08:24:46.804Z,0.77
2019-03-25T08:27:59.171Z,0.73
2019-03-25T08:30:44.281Z,0.67
2019-03-25T08:33:38.556Z,0.60
2019-03-25T08:36:32.437Z,0.70
2019-03-25T08:39:26.788Z,0.83
2019-03-25T08:42:14.246Z,0.73
2019-03-25T08:45:08.941Z,0.63
2019-03-25T08:47:56.357Z,0.37
2019-03-25T08:50:50.428Z,0.43
2019-03-25T08:53:39.373Z,0.73
2019-03-25T08:56:33.676Z,0.57
2019-03-25T08:59:20.998Z,0.50
2019-03-25T09:02:15.344Z,0.50
2019-03-25T09:05:02.594Z,0.70
2019-03-25T09:07:56.493Z,0.50
2019-03-25T09:10:43.581Z,0.80
2019-03-25T09:13:37.480Z,0.60
2019-03-25T09:16:25.047Z,0.70
2019-03-25T09:19:19.916Z,0.57
2019-03-25T09:22:07.387Z,0.77
2019-03-25T09:25:04.912Z,0.70
2019-03-25T09:27:59.626Z,0.50
2019-03-25T09:31:02.998Z,0.47
2019-03-25T09:33:50.426Z,0.70
2019-03-25T09:36:52.077Z,0.67
2019-03-25T09:39:39.527Z,0.60
2019-03-25T09:42:33.861Z,0.70
2019-03-25T09:45:21.257Z,0.40
2019-03-25T09:48:15.550Z,0.47
2019-03-25T09:51:04.792Z,0.50
2019-03-25T09:53:59.080Z,0.50
2019-03-25T09:56:49.561Z,0.60
2019-03-25T09:59:44.611Z,0.67
2019-03-25T10:02:35.077Z,0.40
2019-03-25T10:05:29.295Z,0.50
2019-03-25T10:08:16.941Z,0.70
2019-03-25T10:11:11.207Z,0.53
2019-03-25T10:13:58.385Z,0.60
2019-03-25T10:16:56.080Z,0.67
2019-03-25T10:19:43.406Z,0.90
2019-03-25T10:22:36.870Z,0.60
2019-03-25T10:25:26.346Z,0.40
2019-03-25T10:28:21.201Z,0.30
2019-03-25T10:31:17.382Z,0.40
2019-03-25T10:34:19.847Z,0.53
2019-03-25T10:37:14.331Z,0.70
2019-03-25T10:40:10.868Z,0.30
2019-03-25T10:43:01.317Z,0.63
2019-03-25T10:45:55.048Z,0.77
2019-03-25T10:48:42.413Z,0.40
2019-03-25T10:51:38.620Z,0.73
2019-03-25T10:54:25.827Z,0.97
2019-03-25T10:57:20.037Z,0.57
2019-03-25T11:00:07.348Z,0.57
2019-03-25T11:03:01.307Z,0.50
2019-03-25T11:05:48.462Z,0.43
2019-03-25T11:08:43.243Z,0.50
2019-03-25T11:11:30.306Z,0.40
2019-03-25T11:14:27.171Z,0.33
2019-03-25T11:17:14.574Z,0.47
2019-03-25T11:20:08.789Z,0.90
2019-03-25T11:22:56.350Z,0.67
2019-03-25T11:25:50.092Z,0.40
2019-03-25T11:28:38.643Z,0.83
2019-03-25T11:31:41.184Z,0.57
2019-03-25T11:34:27.796Z,0.43
2019-03-25T11:37:22.078Z,0.70
2019-03-25T11:40:16.576Z,0.63
2019-03-25T11:43:10.349Z,0.50
2019-03-25T11:45:57.569Z,0.50
2019-03-25T11:48:51.597Z,0.50
2019-03-25T11:51:38.988Z,0.60
2019-03-25T11:54:33.139Z,0.43
2019-03-25T11:57:20.362Z,0.63
2019-03-25T12:00:14.711Z,0.60
2019-03-25T12:03:05.125Z,0.67
2019-03-25T12:05:58.647Z,0.60
2019-03-25T12:08:46.102Z,0.67
2019-03-25T12:11:40.642Z,0.47
2019-03-25T12:14:27.839Z,0.30
2019-03-25T12:17:22.042Z,0.67
2019-03-25T12:20:09.847Z,0.87
2019-03-25T12:23:04.035Z,0.73
2019-03-25T12:25:51.351Z,0.93
2019-03-25T12:28:45.977Z,0.40
2019-03-25T12:31:40.346Z,0.63
2019-03-25T12:34:42.350Z,0.63
2019-03-25T12:37:29.490Z,0.50
2019-03-25T12:40:24.189Z,0.50
2019-03-25T12:43:18.030Z,0.60
2019-03-25T12:46:12.161Z,0.40
2019-03-25T12:48:59.645Z,0.73
2019-03-25T12:51:56.682Z,0.57
2019-03-25T12:54:44.034Z,0.60
2019-03-25T12:57:38.248Z,0.47
2019-03-25T13:00:39.591Z,0.80
2019-03-25T13:03:33.820Z,0.70
2019-03-25T13:06:22.818Z,0.60
2019-03-25T13:09:16.935Z,0.60
2019-03-25T13:12:04.518Z,0.50
2019-03-25T13:14:59.326Z,0.60
2019-03-25T13:17:46.592Z,0.60
2019-03-25T13:20:41.242Z,0.43
2019-03-25T13:23:28.825Z,0.90
2019-03-25T13:26:23.005Z,0.63
2019-03-25T13:29:10.462Z,0.90
2019-03-25T13:32:07.066Z,0.60
2019-03-25T13:35:00.894Z,0.73
2019-03-25T13:37:54.682Z,0.33
2019-03-25T13:40:42.258Z,0.60
2019-03-25T13:43:36.648Z,0.70
2019-03-25T13:46:31.314Z,0.87
2019-03-25T13:49:26.593Z,0.80
2019-03-25T13:52:13.941Z,0.57
2019-03-25T13:55:08.873Z,0.77
2019-03-25T13:57:56.379Z,0.40
2019-03-25T14:00:50.786Z,0.67
2019-03-25T14:03:37.955Z,0.60
2019-03-25T14:06:32.363Z,0.50
2019-03-25T14:09:19.716Z,0.80
2019-03-25T14:12:14.162Z,0.30
2019-03-25T14:15:01.177Z,0.70
2019-03-25T14:17:55.394Z,0.77
2019-03-25T14:20:42.785Z,0.67
2019-03-25T14:23:36.984Z,0.80
2019-03-25T14:26:24.704Z,0.53
2019-03-25T14:29:19.094Z,0.50
2019-03-25T14:32:06.486Z,0.77
2019-03-25T14:35:06.864Z,0.57
2019-03-25T14:38:03.846Z,0.80
2019-03-25T14:40:59.850Z,0.90
2019-03-25T14:43:47.111Z,0.70
2019-03-25T14:46:41.370Z,0.90
2019-03-25T14:49:35.190Z,0.50
2019-03-25T14:52:29.567Z,0.70
2019-03-25T14:55:17.314Z,0.43
2019-03-25T14:58:11.299Z,0.93
2019-03-25T15:01:00.121Z,0.67
2019-03-25T15:03:53.451Z,0.60
2019-03-25T15:06:40.870Z,0.50
2019-03-25T15:09:35.606Z,0.57
2019-03-25T15:12:22.762Z,0.47
2019-03-25T15:15:18.636Z,0.60
2019-03-25T15:18:15.239Z,0.80
2019-03-25T15:21:01.914Z,0.50
2019-03-25T15:23:51.922Z,0.30
2019-03-25T15:26:45.947Z,0.60
2019-03-25T15:29:33.091Z,0.60
2019-03-25T15:32:27.641Z,0.83
2019-03-25T15:35:21.778Z,0.50
2019-03-25T15:38:25.593Z,0.70
2019-03-25T15:41:20.883Z,0.67
2019-03-25T15:44:15.667Z,0.80
2019-03-25T15:47:03.103Z,0.53
2019-03-25T15:50:05.710Z,0.90
2019-03-25T15:52:53.212Z,0.60
2019-03-25T15:55:47.487Z,0.97
2019-03-25T15:58:34.923Z,1.10
2019-03-25T16:01:29.420Z,0.70
2019-03-25T16:04:19.646Z,0.63
2019-03-25T16:07:16.536Z,0.80
2019-03-25T16:10:04.842Z,0.40
2019-03-25T16:12:58.882Z,0.80
2019-03-25T16:15:46.360Z,0.70
2019-03-25T16:18:43.407Z,1.00
2019-03-25T16:21:30.988Z,0.87
2019-03-25T16:24:24.801Z,0.50
2019-03-25T16:27:12.158Z,0.70
2019-03-25T16:30:06.350Z,0.67
2019-03-25T16:32:53.636Z,0.50
2019-03-25T16:35:48.213Z,0.60
2019-03-25T16:38:42.107Z,0.97
2019-03-25T16:41:36.441Z,0.73
2019-03-25T16:44:25.424Z,0.90
2019-03-25T16:47:20.865Z,0.70
2019-03-25T16:50:08.106Z,0.60
2019-03-25T16:53:08.990Z,0.67
2019-03-25T16:55:56.249Z,0.83
2019-03-25T16:58:50.385Z,0.57
2019-03-25T17:01:37.472Z,0.57
2019-03-25T17:04:31.300Z,0.70
2019-03-25T17:07:18.428Z,0.90
2019-03-25T17:10:12.637Z,0.70
2019-03-25T17:13:00.037Z,0.77
2019-03-25T17:15:54.192Z,0.70
2019-03-25T17:18:41.276Z,0.90
2019-03-25T17:21:35.395Z,1.00
2019-03-25T17:24:22.778Z,0.80
2019-03-25T17:27:17.326Z,0.73
2019-03-25T17:30:08.543Z,0.60
2019-03-25T17:33:02.551Z,0.73
2019-03-25T17:35:49.819Z,0.93
2019-03-25T17:38:50.172Z,0.90
2019-03-25T17:41:57.130Z,0.90
2019-03-25T17:44:57.936Z,0.80
2019-03-25T17:47:45.470Z,0.73
2019-03-25T17:50:39.466Z,0.90
2019-03-25T17:53:33.372Z,0.87
2019-03-25T17:56:27.036Z,1.17
2019-03-25T17:59:14.497Z,1.10
2019-03-25T18:02:09.153Z,0.80
2019-03-25T18:04:56.251Z,0.80
2019-03-25T18:07:50.091Z,0.87
2019-03-25T18:10:37.505Z,0.73
2019-03-25T18:13:34.371Z,0.60
2019-03-25T18:16:21.867Z,0.90
2019-03-25T18:19:16.151Z,0.70
2019-03-25T18:22:03.500Z,0.83
2019-03-25T18:24:57.298Z,0.87
2019-03-25T18:27:44.773Z,0.90
2019-03-25T18:30:38.796Z,0.77
2019-03-25T18:33:26.026Z,0.70
2019-03-25T18:36:20.015Z,0.70
2019-03-25T18:39:07.667Z,1.17
2019-03-25T18:42:01.746Z,0.70
2019-03-25T18:44:55.818Z,1.13
2019-03-25T18:47:49.576Z,0.80
2019-03-25T18:50:36.799Z,1.30
2019-03-25T18:53:31.464Z,0.90
2019-03-25T18:56:25.175Z,0.80
2019-03-25T18:59:19.466Z,0.70
2019-03-25T19:02:06.589Z,1.10
2019-03-25T19:05:00.601Z,1.07
2019-03-25T19:07:47.894Z,1.00
2019-03-25T19:10:41.585Z,1.00
2019-03-25T19:13:28.783Z,0.90
2019-03-25T19:16:23.897Z,1.23
2019-03-25T19:19:11.544Z,1.10
2019-03-25T19:22:05.794Z,0.80
2019-03-25T19:24:53.360Z,1.03
2019-03-25T19:27:47.269Z,1.07
2019-03-25T19:30:34.433Z,1.00
2019-03-25T19:33:28.103Z,0.87
2019-03-25T19:36:15.477Z,1.17
2019-03-25T19:39:09.463Z,1.37
2019-03-25T19:41:56.763Z,1.00
2019-03-25T19:44:57.549Z,1.00
2019-03-25T19:47:51.885Z,1.00
2019-03-25T19:50:46.718Z,1.23
2019-03-25T19:53:33.962Z,1.03
2019-03-25T19:56:27.999Z,1.10
2019-03-25T19:59:22.765Z,1.00
2019-03-25T20:02:19.377Z,1.10
2019-03-25T20:05:06.474Z,0.93
2019-03-25T20:08:00.431Z,1.50
2019-03-25T20:10:47.899Z,1.13
2019-03-25T20:13:42.144Z,1.07
2019-03-25T20:16:31.678Z,1.17
2019-03-25T20:19:26.253Z,1.33
2019-03-25T20:22:13.455Z,0.90
2019-03-25T20:25:08.507Z,1.10
2019-03-25T20:27:55.788Z,0.90
2019-03-25T20:30:50.189Z,0.90
2019-03-25T20:33:37.549Z,0.83
2019-03-25T20:36:31.491Z,0.90
2019-03-25T20:39:21.822Z,0.90
2019-03-25T20:42:16.391Z,1.27
2019-03-25T20:45:33.250Z,1.10
2019-03-25T20:48:28.080Z,1.10
2019-03-25T20:51:15.700Z,1.10
2019-03-25T20:54:09.738Z,1.30
2019-03-25T20:56:57.275Z,1.03
2019-03-25T20:59:58.184Z,1.00
2019-03-25T21:02:45.662Z,1.10
2019-03-25T21:05:39.909Z,1.40
2019-03-25T21:08:27.578Z,1.30
2019-03-25T21:11:21.937Z,1.37
2019-03-25T21:14:09.023Z,1.67
2019-03-25T21:17:03.203Z,1.30
2019-03-25T21:19:50.590Z,1.40
2019-03-25T21:22:44.433Z,0.97
2019-03-25T21:25:31.931Z,1.13
2019-03-25T21:28:25.522Z,1.37
2019-03-25T21:31:12.978Z,1.00
2019-03-25T21:34:07.542Z,1.00
2019-03-25T21:36:57.517Z,1.20
2019-03-25T21:39:52.410Z,1.23
2019-03-25T21:42:39.411Z,1.03
2019-03-25T21:45:33.797Z,1.13
2019-03-25T21:48:28.826Z,1.30
2019-03-25T21:51:22.753Z,1.20
2019-03-25T21:54:09.960Z,1.10
2019-03-25T21:57:03.501Z,1.20
2019-03-25T21:59:50.896Z,1.60
2019-03-25T22:02:56.127Z,1.23
2019-03-25T22:05:43.487Z,1.30
2019-03-25T22:08:38.734Z,1.07
2019-03-25T22:11:26.186Z,1.10
2019-03-25T22:14:20.293Z,1.00
2019-03-25T22:17:07.460Z,1.40
2019-03-25T22:20:02.180Z,1.30
2019-03-25T22:22:52.527Z,1.17
2019-03-25T22:25:47.067Z,1.17
2019-03-25T22:28:34.557Z,1.47
2019-03-25T22:31:28.325Z,1.00
2019-03-25T22:34:17.063Z,1.10
2019-03-25T22:37:10.898Z,1.37
2019-03-25T22:39:58.315Z,1.10
2019-03-25T22:42:52.788Z,1.20
2019-03-25T22:45:39.982Z,1.07
2019-03-25T22:48:41.258Z,0.87
2019-03-25T22:51:35.058Z,1.27
2019-03-25T22:54:29.016Z,1.20
2019-03-25T22:57:16.580Z,1.23
2019-03-25T23:00:12.262Z,1.57
2019-03-25T23:03:06.938Z,1.10
2019-03-25T23:06:01.922Z,1.67
2019-03-25T23:08:49.087Z,1.20
2019-03-25T23:11:43.518Z,1.00
2019-03-25T23:14:31.324Z,1.10
2019-03-25T23:17:25.089Z,1.43
2019-03-25T23:20:12.701Z,0.90
2019-03-25T23:23:06.935Z,1.03
2019-03-25T23:25:56.753Z,1.20
2019-03-25T23:28:51.179Z,1.23
2019-03-25T23:31:40.054Z,1.00
2019-03-25T23:34:33.674Z,1.20
2019-03-25T23:37:21.126Z,1.10
2019-03-25T23:40:15.038Z,1.30
2019-03-25T23:43:02.315Z,0.70
2019-03-25T23:45:56.164Z,1.30
2019-03-25T23:48:50.074Z,1.13
2019-03-25T23:51:51.710Z,1.00
2019-03-25T23:54:38.928Z,0.93
2019-03-25T23:57:33.254Z,1.33
